sensor_id;sensor_type;location;lat;lon;timestamp;P1;durP1;ratioP1;P2;durP2;ratioP2
37485;SDS011;23341;50.296;18.960;2023-07-31T00:01:43;5.28;;;4.57;;
37485;SDS011;23341;50.296;18.960;2023-07-31T00:06:47;5.80;;;4.80;;
37485;SDS011;23341;50.296;18.960;2023-07-31T00:11:52;5.22;;;4.80;;
37485;SDS011;23341;50.296;18.960;2023-07-31T00:16:56;5.07;;;3.97;;
37485;SDS011;23341;50.296;18.960;2023-07-31T00:21:59;4.60;;;4.20;;
37485;SDS011;23341;50.296;18.960;2023-07-31T00:27:05;4.82;;;4.43;;
37485;SDS011;23341;50.296;18.960;2023-07-31T00:32:09;5.32;;;4.25;;
37485;SDS011;23341;50.296;18.960;2023-07-31T00:37:12;4.15;;;3.85;;
37485;SDS011;23341;50.296;18.960;2023-07-31T00:42:19;4.57;;;4.20;;
37485;SDS011;23341;50.296;18.960;2023-07-31T00:47:23;3.50;;;3.20;;
37485;SDS011;23341;50.296;18.960;2023-07-31T00:52:27;6.70;;;3.40;;
37485;SDS011;23341;50.296;18.960;2023-07-31T00:57:33;4.20;;;2.67;;
37485;SDS011;23341;50.296;18.960;2023-07-31T01:02:38;9.55;;;5.25;;
37485;SDS011;23341;50.296;18.960;2023-07-31T01:07:49;7.72;;;3.85;;
37485;SDS011;23341;50.296;18.960;2023-07-31T01:13:00;5.32;;;3.25;;
37485;SDS011;23341;50.296;18.960;2023-07-31T01:18:07;4.38;;;3.78;;
37485;SDS011;23341;50.296;18.960;2023-07-31T01:23:32;7.10;;;3.88;;
37485;SDS011;23341;50.296;18.960;2023-07-31T01:28:53;3.97;;;3.10;;
37485;SDS011;23341;50.296;18.960;2023-07-31T01:34:02;5.65;;;3.58;;
37485;SDS011;23341;50.296;18.960;2023-07-31T01:39:07;4.70;;;2.80;;
37485;SDS011;23341;50.296;18.960;2023-07-31T01:44:12;3.00;;;2.35;;
37485;SDS011;23341;50.296;18.960;2023-07-31T01:49:16;4.07;;;2.67;;
37485;SDS011;23341;50.296;18.960;2023-07-31T01:54:20;3.13;;;2.47;;
37485;SDS011;23341;50.296;18.960;2023-07-31T01:59:25;3.10;;;2.75;;
37485;SDS011;23341;50.296;18.960;2023-07-31T02:04:29;3.25;;;2.95;;
37485;SDS011;23341;50.296;18.960;2023-07-31T02:09:32;7.05;;;4.28;;
37485;SDS011;23341;50.296;18.960;2023-07-31T02:14:37;8.15;;;4.78;;
37485;SDS011;23341;50.296;18.960;2023-07-31T02:19:41;5.75;;;4.10;;
37485;SDS011;23341;50.296;18.960;2023-07-31T02:24:45;4.03;;;3.50;;
37485;SDS011;23341;50.296;18.960;2023-07-31T02:29:50;6.85;;;5.50;;
37485;SDS011;23341;50.296;18.960;2023-07-31T02:34:54;13.00;;;6.68;;
37485;SDS011;23341;50.296;18.960;2023-07-31T02:39:58;9.90;;;4.78;;
37485;SDS011;23341;50.296;18.960;2023-07-31T02:45:05;7.82;;;4.53;;
37485;SDS011;23341;50.296;18.960;2023-07-31T02:50:10;4.40;;;3.97;;
37485;SDS011;23341;50.296;18.960;2023-07-31T02:55:14;7.63;;;3.85;;
37485;SDS011;23341;50.296;18.960;2023-07-31T03:00:19;6.05;;;4.05;;
37485;SDS011;23341;50.296;18.960;2023-07-31T03:10:48;6.72;;;4.55;;
37485;SDS011;23341;50.296;18.960;2023-07-31T03:15:55;5.03;;;3.65;;
37485;SDS011;23341;50.296;18.960;2023-07-31T03:20:59;4.18;;;3.40;;
37485;SDS011;23341;50.296;18.960;2023-07-31T03:26:06;6.55;;;4.30;;
37485;SDS011;23341;50.296;18.960;2023-07-31T03:31:13;5.90;;;5.27;;
37485;SDS011;23341;50.296;18.960;2023-07-31T03:36:17;9.10;;;4.30;;
37485;SDS011;23341;50.296;18.960;2023-07-31T03:41:21;9.18;;;5.00;;
37485;SDS011;23341;50.296;18.960;2023-07-31T03:46:26;7.30;;;4.93;;
37485;SDS011;23341;50.296;18.960;2023-07-31T03:51:30;12.50;;;4.97;;
37485;SDS011;23341;50.296;18.960;2023-07-31T03:56:34;5.88;;;4.50;;
37485;SDS011;23341;50.296;18.960;2023-07-31T04:01:39;7.40;;;4.90;;
37485;SDS011;23341;50.296;18.960;2023-07-31T04:06:42;10.95;;;4.32;;
37485;SDS011;23341;50.296;18.960;2023-07-31T04:11:46;6.18;;;3.90;;
37485;SDS011;23341;50.296;18.960;2023-07-31T04:16:51;6.80;;;4.57;;
37485;SDS011;23341;50.296;18.960;2023-07-31T04:21:55;7.47;;;3.60;;
37485;SDS011;23341;50.296;18.960;2023-07-31T04:27:00;6.25;;;3.42;;
37485;SDS011;23341;50.296;18.960;2023-07-31T04:32:06;4.55;;;2.88;;
37485;SDS011;23341;50.296;18.960;2023-07-31T04:37:10;4.72;;;3.17;;
37485;SDS011;23341;50.296;18.960;2023-07-31T04:42:13;3.90;;;3.47;;
37485;SDS011;23341;50.296;18.960;2023-07-31T04:47:19;8.43;;;4.75;;
37485;SDS011;23341;50.296;18.960;2023-07-31T04:52:22;8.95;;;3.22;;
37485;SDS011;23341;50.296;18.960;2023-07-31T04:57:26;3.42;;;2.78;;
37485;SDS011;23341;50.296;18.960;2023-07-31T05:02:31;4.60;;;2.70;;
37485;SDS011;23341;50.296;18.960;2023-07-31T05:07:35;6.30;;;3.40;;
37485;SDS011;23341;50.296;18.960;2023-07-31T05:12:40;11.55;;;3.55;;
37485;SDS011;23341;50.296;18.960;2023-07-31T05:17:45;10.18;;;3.90;;
37485;SDS011;23341;50.296;18.960;2023-07-31T05:22:50;4.43;;;3.40;;
37485;SDS011;23341;50.296;18.960;2023-07-31T05:27:54;6.60;;;3.42;;
37485;SDS011;23341;50.296;18.960;2023-07-31T05:32:59;4.03;;;3.17;;
37485;SDS011;23341;50.296;18.960;2023-07-31T05:38:03;7.07;;;3.35;;
37485;SDS011;23341;50.296;18.960;2023-07-31T05:43:07;4.18;;;2.70;;
37485;SDS011;23341;50.296;18.960;2023-07-31T05:48:13;4.07;;;2.88;;
37485;SDS011;23341;50.296;18.960;2023-07-31T05:53:17;13.77;;;3.00;;
37485;SDS011;23341;50.296;18.960;2023-07-31T05:58:21;4.57;;;2.60;;
37485;SDS011;23341;50.296;18.960;2023-07-31T06:03:26;6.35;;;2.45;;
37485;SDS011;23341;50.296;18.960;2023-07-31T06:08:30;3.85;;;2.50;;
37485;SDS011;23341;50.296;18.960;2023-07-31T06:13:35;5.40;;;2.15;;
37485;SDS011;23341;50.296;18.960;2023-07-31T06:18:40;5.18;;;2.15;;
37485;SDS011;23341;50.296;18.960;2023-07-31T06:23:44;2.95;;;1.95;;
37485;SDS011;23341;50.296;18.960;2023-07-31T06:28:47;5.43;;;1.85;;
37485;SDS011;23341;50.296;18.960;2023-07-31T06:33:53;3.97;;;1.70;;
37485;SDS011;23341;50.296;18.960;2023-07-31T06:38:57;4.40;;;2.22;;
37485;SDS011;23341;50.296;18.960;2023-07-31T06:44:01;9.18;;;3.13;;
37485;SDS011;23341;50.296;18.960;2023-07-31T06:49:06;4.38;;;2.33;;
37485;SDS011;23341;50.296;18.960;2023-07-31T06:54:10;7.32;;;2.10;;
37485;SDS011;23341;50.296;18.960;2023-07-31T06:59:14;4.68;;;2.13;;
37485;SDS011;23341;50.296;18.960;2023-07-31T07:04:19;5.20;;;1.70;;
37485;SDS011;23341;50.296;18.960;2023-07-31T07:09:23;2.30;;;1.42;;
37485;SDS011;23341;50.296;18.960;2023-07-31T07:14:27;7.50;;;2.00;;
37485;SDS011;23341;50.296;18.960;2023-07-31T07:19:33;7.70;;;2.65;;
37485;SDS011;23341;50.296;18.960;2023-07-31T07:24:37;7.15;;;1.98;;
37485;SDS011;23341;50.296;18.960;2023-07-31T07:29:41;6.72;;;1.95;;
37485;SDS011;23341;50.296;18.960;2023-07-31T07:34:46;3.70;;;2.05;;
37485;SDS011;23341;50.296;18.960;2023-07-31T07:39:51;4.28;;;1.88;;
37485;SDS011;23341;50.296;18.960;2023-07-31T07:44:55;4.15;;;2.13;;
37485;SDS011;23341;50.296;18.960;2023-07-31T07:50:04;3.33;;;2.13;;
37485;SDS011;23341;50.296;18.960;2023-07-31T07:55:13;5.68;;;2.00;;
37485;SDS011;23341;50.296;18.960;2023-07-31T08:00:22;3.85;;;2.00;;
37485;SDS011;23341;50.296;18.960;2023-07-31T08:05:28;5.85;;;1.63;;
37485;SDS011;23341;50.296;18.960;2023-07-31T08:10:35;3.08;;;1.70;;
37485;SDS011;23341;50.296;18.960;2023-07-31T08:15:42;3.97;;;2.47;;
37485;SDS011;23341;50.296;18.960;2023-07-31T08:20:47;6.53;;;2.00;;
37485;SDS011;23341;50.296;18.960;2023-07-31T08:25:53;6.22;;;1.95;;
37485;SDS011;23341;50.296;18.960;2023-07-31T08:30:57;5.35;;;2.08;;
37485;SDS011;23341;50.296;18.960;2023-07-31T08:36:03;4.22;;;1.92;;
37485;SDS011;23341;50.296;18.960;2023-07-31T08:41:07;3.13;;;1.63;;
37485;SDS011;23341;50.296;18.960;2023-07-31T08:46:11;2.95;;;1.73;;
37485;SDS011;23341;50.296;18.960;2023-07-31T08:51:17;2.70;;;1.70;;
37485;SDS011;23341;50.296;18.960;2023-07-31T08:56:22;2.42;;;1.50;;
37485;SDS011;23341;50.296;18.960;2023-07-31T09:01:27;3.20;;;1.58;;
37485;SDS011;23341;50.296;18.960;2023-07-31T09:06:34;4.72;;;2.03;;
37485;SDS011;23341;50.296;18.960;2023-07-31T09:11:39;3.88;;;1.40;;
37485;SDS011;23341;50.296;18.960;2023-07-31T09:16:53;2.72;;;1.15;;
37485;SDS011;23341;50.296;18.960;2023-07-31T09:21:59;4.80;;;1.27;;
37485;SDS011;23341;50.296;18.960;2023-07-31T09:27:03;3.17;;;1.40;;
37485;SDS011;23341;50.296;18.960;2023-07-31T09:32:15;2.05;;;1.55;;
37485;SDS011;23341;50.296;18.960;2023-07-31T09:37:20;4.13;;;2.40;;
37485;SDS011;23341;50.296;18.960;2023-07-31T09:42:24;1.88;;;1.50;;
37485;SDS011;23341;50.296;18.960;2023-07-31T09:47:30;5.40;;;1.80;;
37485;SDS011;23341;50.296;18.960;2023-07-31T09:52:36;5.20;;;2.10;;
37485;SDS011;23341;50.296;18.960;2023-07-31T09:57:45;7.38;;;2.03;;
37485;SDS011;23341;50.296;18.960;2023-07-31T10:02:50;6.45;;;1.70;;
37485;SDS011;23341;50.296;18.960;2023-07-31T10:07:56;2.25;;;1.35;;
37485;SDS011;23341;50.296;18.960;2023-07-31T10:13:00;4.68;;;1.50;;
37485;SDS011;23341;50.296;18.960;2023-07-31T10:18:05;2.97;;;1.17;;
37485;SDS011;23341;50.296;18.960;2023-07-31T10:23:11;6.07;;;1.50;;
37485;SDS011;23341;50.296;18.960;2023-07-31T10:28:16;2.38;;;1.55;;
37485;SDS011;23341;50.296;18.960;2023-07-31T10:33:20;4.88;;;1.73;;
37485;SDS011;23341;50.296;18.960;2023-07-31T10:38:26;3.40;;;1.50;;
37485;SDS011;23341;50.296;18.960;2023-07-31T10:43:30;5.50;;;1.65;;
37485;SDS011;23341;50.296;18.960;2023-07-31T10:48:36;6.07;;;1.90;;
37485;SDS011;23341;50.296;18.960;2023-07-31T10:53:44;4.80;;;1.40;;
37485;SDS011;23341;50.296;18.960;2023-07-31T10:58:48;2.45;;;1.35;;
37485;SDS011;23341;50.296;18.960;2023-07-31T11:04:09;1.92;;;1.30;;
37485;SDS011;23341;50.296;18.960;2023-07-31T11:09:16;2.92;;;1.55;;
37485;SDS011;23341;50.296;18.960;2023-07-31T11:14:20;4.78;;;1.60;;
37485;SDS011;23341;50.296;18.960;2023-07-31T11:19:24;4.97;;;1.60;;
37485;SDS011;23341;50.296;18.960;2023-07-31T11:24:29;2.92;;;1.48;;
37485;SDS011;23341;50.296;18.960;2023-07-31T11:29:33;7.57;;;1.40;;
37485;SDS011;23341;50.296;18.960;2023-07-31T11:34:50;3.05;;;1.40;;
37485;SDS011;23341;50.296;18.960;2023-07-31T11:39:59;3.88;;;1.70;;
37485;SDS011;23341;50.296;18.960;2023-07-31T11:45:03;11.83;;;2.23;;
37485;SDS011;23341;50.296;18.960;2023-07-31T11:50:10;3.78;;;2.15;;
37485;SDS011;23341;50.296;18.960;2023-07-31T11:55:16;8.38;;;1.98;;
37485;SDS011;23341;50.296;18.960;2023-07-31T12:00:20;2.58;;;1.60;;
37485;SDS011;23341;50.296;18.960;2023-07-31T12:05:25;2.55;;;1.65;;
37485;SDS011;23341;50.296;18.960;2023-07-31T12:10:31;2.17;;;1.50;;
37485;SDS011;23341;50.296;18.960;2023-07-31T12:15:40;3.25;;;1.63;;
37485;SDS011;23341;50.296;18.960;2023-07-31T12:20:45;4.32;;;1.83;;
37485;SDS011;23341;50.296;18.960;2023-07-31T12:26:00;3.20;;;1.85;;
37485;SDS011;23341;50.296;18.960;2023-07-31T12:31:05;1.52;;;1.42;;
37485;SDS011;23341;50.296;18.960;2023-07-31T12:36:11;4.32;;;1.85;;
37485;SDS011;23341;50.296;18.960;2023-07-31T12:41:18;3.95;;;1.65;;
37485;SDS011;23341;50.296;18.960;2023-07-31T12:46:22;4.68;;;1.60;;
37485;SDS011;23341;50.296;18.960;2023-07-31T12:51:26;5.35;;;1.52;;
37485;SDS011;23341;50.296;18.960;2023-07-31T12:56:31;2.88;;;1.83;;
37485;SDS011;23341;50.296;18.960;2023-07-31T13:01:35;2.75;;;1.13;;
37485;SDS011;23341;50.296;18.960;2023-07-31T13:06:42;3.08;;;1.50;;
37485;SDS011;23341;50.296;18.960;2023-07-31T13:11:47;3.85;;;1.70;;
37485;SDS011;23341;50.296;18.960;2023-07-31T13:16:51;5.00;;;1.42;;
37485;SDS011;23341;50.296;18.960;2023-07-31T13:21:55;5.53;;;1.40;;
37485;SDS011;23341;50.296;18.960;2023-07-31T13:27:00;4.90;;;1.40;;
37485;SDS011;23341;50.296;18.960;2023-07-31T13:32:04;7.45;;;1.88;;
37485;SDS011;23341;50.296;18.960;2023-07-31T13:37:09;4.07;;;1.48;;
37485;SDS011;23341;50.296;18.960;2023-07-31T13:42:14;1.88;;;1.45;;
37485;SDS011;23341;50.296;18.960;2023-07-31T13:47:18;1.85;;;1.25;;
37485;SDS011;23341;50.296;18.960;2023-07-31T13:52:21;5.75;;;2.22;;
37485;SDS011;23341;50.296;18.960;2023-07-31T13:57:27;3.20;;;1.70;;
37485;SDS011;23341;50.296;18.960;2023-07-31T14:02:31;3.47;;;1.70;;
37485;SDS011;23341;50.296;18.960;2023-07-31T14:07:35;2.67;;;1.60;;
37485;SDS011;23341;50.296;18.960;2023-07-31T14:12:40;4.65;;;1.48;;
37485;SDS011;23341;50.296;18.960;2023-07-31T14:17:44;4.88;;;1.65;;
37485;SDS011;23341;50.296;18.960;2023-07-31T14:22:48;7.03;;;2.08;;
37485;SDS011;23341;50.296;18.960;2023-07-31T14:27:54;2.78;;;1.75;;
37485;SDS011;23341;50.296;18.960;2023-07-31T14:32:57;2.28;;;1.55;;
37485;SDS011;23341;50.296;18.960;2023-07-31T14:38:02;4.68;;;1.73;;
37485;SDS011;23341;50.296;18.960;2023-07-31T14:43:10;1.60;;;1.50;;
37485;SDS011;23341;50.296;18.960;2023-07-31T14:48:14;3.30;;;1.27;;
37485;SDS011;23341;50.296;18.960;2023-07-31T14:53:18;5.82;;;1.60;;
37485;SDS011;23341;50.296;18.960;2023-07-31T14:58:24;2.17;;;1.48;;
37485;SDS011;23341;50.296;18.960;2023-07-31T15:03:28;2.33;;;1.52;;
37485;SDS011;23341;50.296;18.960;2023-07-31T15:08:34;4.07;;;1.70;;
37485;SDS011;23341;50.296;18.960;2023-07-31T15:13:42;4.78;;;1.77;;
37485;SDS011;23341;50.296;18.960;2023-07-31T15:18:46;2.35;;;1.25;;
37485;SDS011;23341;50.296;18.960;2023-07-31T15:23:51;2.92;;;1.70;;
37485;SDS011;23341;50.296;18.960;2023-07-31T15:29:00;2.65;;;1.30;;
37485;SDS011;23341;50.296;18.960;2023-07-31T15:34:07;4.10;;;1.10;;
37485;SDS011;23341;50.296;18.960;2023-07-31T15:39:11;3.85;;;1.45;;
37485;SDS011;23341;50.296;18.960;2023-07-31T15:44:17;1.50;;;1.20;;
37485;SDS011;23341;50.296;18.960;2023-07-31T15:49:21;1.63;;;1.30;;
37485;SDS011;23341;50.296;18.960;2023-07-31T15:54:25;2.72;;;1.20;;
37485;SDS011;23341;50.296;18.960;2023-07-31T15:59:31;1.80;;;1.17;;
37485;SDS011;23341;50.296;18.960;2023-07-31T16:04:34;4.28;;;1.40;;
37485;SDS011;23341;50.296;18.960;2023-07-31T16:09:38;1.52;;;1.08;;
37485;SDS011;23341;50.296;18.960;2023-07-31T16:14:43;2.92;;;1.67;;
37485;SDS011;23341;50.296;18.960;2023-07-31T16:19:47;3.05;;;1.10;;
37485;SDS011;23341;50.296;18.960;2023-07-31T16:24:51;3.00;;;1.17;;
37485;SDS011;23341;50.296;18.960;2023-07-31T16:29:57;4.38;;;1.65;;
37485;SDS011;23341;50.296;18.960;2023-07-31T16:35:02;2.08;;;1.60;;
37485;SDS011;23341;50.296;18.960;2023-07-31T16:40:07;5.28;;;1.60;;
37485;SDS011;23341;50.296;18.960;2023-07-31T16:45:13;3.58;;;1.55;;
37485;SDS011;23341;50.296;18.960;2023-07-31T16:50:17;2.42;;;1.73;;
37485;SDS011;23341;50.296;18.960;2023-07-31T16:55:23;2.45;;;1.83;;
37485;SDS011;23341;50.296;18.960;2023-07-31T17:00:33;2.53;;;1.92;;
37485;SDS011;23341;50.296;18.960;2023-07-31T17:05:37;2.72;;;1.70;;
37485;SDS011;23341;50.296;18.960;2023-07-31T17:10:41;6.03;;;1.67;;
37485;SDS011;23341;50.296;18.960;2023-07-31T17:15:46;2.25;;;1.48;;
37485;SDS011;23341;50.296;18.960;2023-07-31T17:20:50;3.47;;;1.42;;
37485;SDS011;23341;50.296;18.960;2023-07-31T17:25:54;5.38;;;1.70;;
37485;SDS011;23341;50.296;18.960;2023-07-31T17:30:59;2.80;;;1.73;;
37485;SDS011;23341;50.296;18.960;2023-07-31T17:36:03;4.15;;;2.10;;
37485;SDS011;23341;50.296;18.960;2023-07-31T17:41:09;2.58;;;1.75;;
37485;SDS011;23341;50.296;18.960;2023-07-31T17:46:15;2.92;;;1.83;;
37485;SDS011;23341;50.296;18.960;2023-07-31T17:51:18;5.60;;;2.15;;
37485;SDS011;23341;50.296;18.960;2023-07-31T17:56:22;2.22;;;1.80;;
37485;SDS011;23341;50.296;18.960;2023-07-31T18:01:28;5.00;;;2.10;;
37485;SDS011;23341;50.296;18.960;2023-07-31T18:06:32;5.35;;;1.98;;
37485;SDS011;23341;50.296;18.960;2023-07-31T18:11:37;5.43;;;2.33;;
37485;SDS011;23341;50.296;18.960;2023-07-31T18:16:42;8.70;;;2.28;;
37485;SDS011;23341;50.296;18.960;2023-07-31T18:21:46;7.70;;;2.42;;
37485;SDS011;23341;50.296;18.960;2023-07-31T18:26:50;7.45;;;4.75;;
37485;SDS011;23341;50.296;18.960;2023-07-31T18:31:55;11.82;;;5.10;;
37485;SDS011;23341;50.296;18.960;2023-07-31T18:36:59;7.90;;;5.05;;
37485;SDS011;23341;50.296;18.960;2023-07-31T18:42:06;8.35;;;4.50;;
37485;SDS011;23341;50.296;18.960;2023-07-31T18:47:12;9.68;;;4.70;;
37485;SDS011;23341;50.296;18.960;2023-07-31T18:52:17;12.23;;;5.95;;
37485;SDS011;23341;50.296;18.960;2023-07-31T18:57:21;11.73;;;6.20;;
37485;SDS011;23341;50.296;18.960;2023-07-31T19:02:28;10.27;;;4.93;;
37485;SDS011;23341;50.296;18.960;2023-07-31T19:07:32;7.82;;;3.88;;
37485;SDS011;23341;50.296;18.960;2023-07-31T19:12:36;9.55;;;4.18;;
37485;SDS011;23341;50.296;18.960;2023-07-31T19:17:41;12.40;;;4.03;;
37485;SDS011;23341;50.296;18.960;2023-07-31T19:22:54;5.72;;;3.35;;
37485;SDS011;23341;50.296;18.960;2023-07-31T19:28:03;4.82;;;2.42;;
37485;SDS011;23341;50.296;18.960;2023-07-31T19:33:08;5.10;;;2.30;;
37485;SDS011;23341;50.296;18.960;2023-07-31T19:38:12;7.32;;;2.30;;
37485;SDS011;23341;50.296;18.960;2023-07-31T19:43:16;4.38;;;2.38;;
37485;SDS011;23341;50.296;18.960;2023-07-31T19:48:22;6.85;;;3.03;;
37485;SDS011;23341;50.296;18.960;2023-07-31T19:53:27;5.50;;;2.40;;
37485;SDS011;23341;50.296;18.960;2023-07-31T19:58:31;6.30;;;2.75;;
37485;SDS011;23341;50.296;18.960;2023-07-31T20:03:36;5.45;;;3.63;;
37485;SDS011;23341;50.296;18.960;2023-07-31T20:08:40;6.80;;;3.67;;
37485;SDS011;23341;50.296;18.960;2023-07-31T20:13:44;6.97;;;2.90;;
37485;SDS011;23341;50.296;18.960;2023-07-31T20:18:49;7.47;;;3.38;;
37485;SDS011;23341;50.296;18.960;2023-07-31T20:23:53;4.07;;;2.97;;
37485;SDS011;23341;50.296;18.960;2023-07-31T20:28:57;6.28;;;3.58;;
37485;SDS011;23341;50.296;18.960;2023-07-31T20:34:02;4.38;;;2.85;;
37485;SDS011;23341;50.296;18.960;2023-07-31T20:39:09;4.43;;;2.85;;
37485;SDS011;23341;50.296;18.960;2023-07-31T20:44:14;5.03;;;2.50;;
37485;SDS011;23341;50.296;18.960;2023-07-31T20:49:19;3.28;;;2.53;;
37485;SDS011;23341;50.296;18.960;2023-07-31T20:54:23;35.88;;;24.67;;
37485;SDS011;23341;50.296;18.960;2023-07-31T20:59:27;34.72;;;21.33;;
37485;SDS011;23341;50.296;18.960;2023-07-31T21:04:32;19.70;;;13.77;;
37485;SDS011;23341;50.296;18.960;2023-07-31T21:09:39;16.08;;;11.38;;
37485;SDS011;23341;50.296;18.960;2023-07-31T21:14:43;20.80;;;14.40;;
37485;SDS011;23341;50.296;18.960;2023-07-31T21:19:48;17.75;;;9.80;;
37485;SDS011;23341;50.296;18.960;2023-07-31T21:24:54;17.80;;;11.80;;
37485;SDS011;23341;50.296;18.960;2023-07-31T21:29:57;15.30;;;9.55;;
37485;SDS011;23341;50.296;18.960;2023-07-31T21:35:04;18.70;;;9.75;;
37485;SDS011;23341;50.296;18.960;2023-07-31T21:40:09;13.30;;;8.98;;
37485;SDS011;23341;50.296;18.960;2023-07-31T21:45:14;12.65;;;6.22;;
37485;SDS011;23341;50.296;18.960;2023-07-31T21:50:19;10.60;;;4.72;;
37485;SDS011;23341;50.296;18.960;2023-07-31T21:55:23;7.32;;;5.32;;
37485;SDS011;23341;50.296;18.960;2023-07-31T22:00:27;8.93;;;5.47;;
37485;SDS011;23341;50.296;18.960;2023-07-31T22:05:35;9.52;;;5.00;;
37485;SDS011;23341;50.296;18.960;2023-07-31T22:10:39;8.80;;;3.75;;
37485;SDS011;23341;50.296;18.960;2023-07-31T22:15:46;9.40;;;4.65;;
37485;SDS011;23341;50.296;18.960;2023-07-31T22:20:55;14.30;;;4.05;;
37485;SDS011;23341;50.296;18.960;2023-07-31T22:26:15;8.02;;;4.35;;
37485;SDS011;23341;50.296;18.960;2023-07-31T22:31:18;13.05;;;4.63;;
37485;SDS011;23341;50.296;18.960;2023-07-31T22:36:23;7.97;;;4.22;;
37485;SDS011;23341;50.296;18.960;2023-07-31T22:41:32;10.30;;;4.53;;
37485;SDS011;23341;50.296;18.960;2023-07-31T22:46:38;12.85;;;7.13;;
37485;SDS011;23341;50.296;18.960;2023-07-31T22:51:43;9.93;;;4.95;;
37485;SDS011;23341;50.296;18.960;2023-07-31T22:56:47;12.73;;;5.28;;
37485;SDS011;23341;50.296;18.960;2023-07-31T23:01:51;5.57;;;4.63;;
37485;SDS011;23341;50.296;18.960;2023-07-31T23:06:56;9.27;;;4.22;;
37485;SDS011;23341;50.296;18.960;2023-07-31T23:12:00;7.35;;;3.97;;
37485;SDS011;23341;50.296;18.960;2023-07-31T23:17:04;5.47;;;3.97;;
37485;SDS011;23341;50.296;18.960;2023-07-31T23:22:09;10.35;;;4.18;;
37485;SDS011;23341;50.296;18.960;2023-07-31T23:27:14;5.18;;;4.07;;
37485;SDS011;23341;50.296;18.960;2023-07-31T23:32:18;4.55;;;3.53;;
37485;SDS011;23341;50.296;18.960;2023-07-31T23:37:23;6.32;;;4.05;;
37485;SDS011;23341;50.296;18.960;2023-07-31T23:42:26;4.80;;;3.75;;
37485;SDS011;23341;50.296;18.960;2023-07-31T23:47:32;10.73;;;4.68;;
37485;SDS011;23341;50.296;18.960;2023-07-31T23:52:38;5.32;;;3.72;;
37485;SDS011;23341;50.296;18.960;2023-07-31T23:57:42;6.07;;;3.60;;
